Tropical Cyclones
[Index]
Main Index Home Page Stock Weather Photos Extreme Storms Discussion Storm News and Storm Chasing Reports Tropical Cyclones / Hurricanes / Typhoons Weather Data and Links Wild Fires / Bushfires Weather Observation Techniques Weather Picture Catalogue Tornado Pictures and Reports Stock Video Footage and DVDs for sale
Season 1986-1987 Tropical Cyclone ALININA Track Map
Season 1986-1987 Summaries: [BoM-AU] [JTWC-AU] [JTWC-SIO] [JTWC-SPAC] [JTWC-SH]
<<- Previous TC | JTWC 1986-1987 Season | Next TC ->>

click for intensity scale information  Lat/long Grid: Show Hide

 Date Labels: Show Hide

Joint Typhoon Warning Centre Cyclone Data

Name: ALININA

16 Jan 1987 12:00 UTC to 24 Jan 1987 00:00 UTC

    date/time    lat    long     hPa   cat  kts
1987-01-16 12   13.4    66.5                  35          
1987-01-16 18   13.9    66.9            1     45          
1987-01-17 00   14.4    67.2            1     50          
1987-01-17 06   14.8    67.3            2     55          
1987-01-17 12   15.1    67.6            2     60          
1987-01-17 18   15.6    68.2            2     65          
1987-01-18 00   16.3    68.8            2     70          
1987-01-18 06   17.2    68.9            3     75          
1987-01-18 12   18.3    69.1            2     70          
1987-01-18 18   19.1    69.9            2     65          
1987-01-19 00   19.8    70.6            2     60          
1987-01-19 06   20.4    70.7            2     55          
1987-01-19 12   21.0    70.8            1     50          
1987-01-19 18   21.7    71.1            1     40          
1987-01-20 00   22.5    71.3                  35          
1987-01-20 06   23.3    71.2                  35          
1987-01-20 12   23.6    71.0                  35          
1987-01-20 18   23.7    70.3            1     40          
1987-01-21 00   23.8    69.3            1     45          
1987-01-21 06   24.0    68.0            1     45          
1987-01-21 12   24.3    66.7            1     50          
1987-01-21 18   24.7    65.4            2     55          
1987-01-22 00   25.4    64.2            2     60          
1987-01-22 06   26.5    63.2            2     65          
1987-01-22 12   27.8    63.0            2     60          
1987-01-22 18   29.2    63.5            2     55          
1987-01-23 00   31.0    64.7            2     55          
1987-01-23 06   33.0    66.5            2     55          
1987-01-23 12   35.1    69.0            2     55          
1987-01-23 18   36.8    72.0            2     55          
1987-01-24 00   38.2    75.1            2     55          
Winds are 1-min average.

Tropical cyclone tracks developed by Michael Bath using data from the Joint Typhoon Warning Centre Best Tracks and Google Maps.


[Australian Severe Weather index] [Copyright Notice] [Email Contacts] [Search This Site] [Privacy Policy]
Document: tropical_cyclone_alinina.htm Updated: 18 September 2016